Startpagina
METAR-TAF:

METAR-TAF

Vliegvelden :

Marshall Islands International Airport

Majuro, Marshalleilanden

breedte: 07-04N, lengte: 171-17E, hoogte: 2 m

Actueel weer

Dit bericht is 16 minuten geleden gemaakt, om 05:52 UTC
Wind 11 kt uit het oostnoordoosten
Temperatuur 30°C
Vochtigheid 75%
Druk 1006 hPa
Zicht: 24.1 km
Weinig wolken op 1500 ft
Verspreide wolken op 5000 ft
Gebroken wolken op 30000 ft

METAR: PKMJ 180552Z 06011KT 15SM FEW015 SCT050 BKN300 30/25 A2971

Tijdstip: 18:08 (06:08 UTC)

Verwachting

Dit bericht is 47 minuten geleden gemaakt, om 05:21 UTC
Verwachting geldig van 18 om 06 UTC tot 19 om 06 UTC
Wind 13 kt uit het oosten
Zicht: 10 km
Verspreide wolken op 1500 ft
Verspreide wolken op 5000 ft
buien in de omgeving

TAF: PKMJ 180521Z 1806/1906 09013KT P6SM VCSH SCT015 SCT050

Waarnemingen en weersverwachtingen van meer dan 4000 vliegvelden (METAR en TAF).

De beschikbare stations zijn de gele en rode punten op de kaart.

Ga met uw muis naar het station om de naam te zien.

Klik dan om waarnemingen en weersverwachtingen te zien.

kaart wijzigen: klik op de groene knoppen met een zwart kruis om in te zoomen, op de groene knop met een streepje om uit te zoomen of op de groene pijlen voor aangrenzende kaarten.


METAR-TAF: